Time;durP1;ratioP1;P1;durP2;ratioP2;P2;SDS_P1;SDS_P2;PMS_P1;PMS_P2;Temp;Humidity;BMP_temperature;BMP_pressure;BME280_temperature;BME280_humidity;BME280_pressure;Samples;Min_cycle;Max_cycle;Signal;HPM_P1;HPM_P2
2022/06/18 06:23:53;;;;;;;14.77;11.55;;;20.60;99.90;;;;;;4847919;24;20057;-83
2022/06/18 06:26:23;;;;;;;13.00;11.65;;;20.60;99.90;;;;;;4706150;30;20482;-84
2022/06/18 06:28:49;;;;;;;13.73;11.75;;;20.60;99.90;;;;;;4692136;30;20476;-82
2022/06/18 06:31:15;;;;;;;18.00;12.57;;;20.60;99.90;;;;;;4705644;30;20038;-83
2022/06/18 06:33:41;;;;;;;15.55;12.10;;;20.60;99.90;;;;;;4706686;30;20050;-82
2022/06/18 06:36:09;;;;;;;13.10;11.25;;;20.60;99.90;;;;;;4689007;30;20081;-84
2022/06/18 06:38:37;;;;;;;15.15;11.75;;;20.70;99.90;;;;;;4666074;30;20410;-84
2022/06/18 06:41:06;;;;;;;13.98;11.45;;;20.70;99.90;;;;;;4665010;30;20042;-84
2022/06/18 06:43:31;;;;;;;19.38;12.35;;;20.70;99.90;;;;;;4680158;30;20065;-84
2022/06/18 06:45:57;;;;;;;16.90;12.65;;;20.70;99.90;;;;;;4679364;30;20050;-84
2022/06/18 06:48:22;;;;;;;14.85;11.60;;;20.80;99.90;;;;;;4680589;30;20449;-84
2022/06/18 06:50:50;;;;;;;18.83;14.05;;;20.80;99.90;;;;;;4683538;30;20383;-84
2022/06/18 06:53:16;;;;;;;18.63;12.75;;;20.90;99.90;;;;;;4681570;30;20089;-84
2022/06/18 06:58:26;;;;;;;19.00;12.00;;;21.00;99.90;;;;;;4682504;30;20430;-84
2022/06/18 07:00:54;;;;;;;15.27;12.00;;;21.00;99.90;;;;;;4669456;30;20042;-84
2022/06/18 07:03:32;;;;;;;14.25;10.85;;;21.00;99.90;;;;;;4682679;30;20054;-84
2022/06/18 07:06:01;;;;;;;16.55;10.43;;;21.10;99.90;;;;;;4669067;30;20057;-84
2022/06/18 07:08:27;;;;;;;13.20;9.88;;;21.10;99.90;;;;;;4682046;30;20128;-84
2022/06/18 07:10:53;;;;;;;11.57;9.45;;;21.10;99.90;;;;;;4683682;30;20544;-84
2022/06/18 07:13:19;;;;;;;11.48;9.70;;;21.10;99.90;;;;;;4682347;30;20132;-84
2022/06/18 07:15:46;;;;;;;12.48;9.15;;;21.20;99.90;;;;;;4683400;30;20054;-83
2022/06/18 07:18:22;;;;;;;11.25;8.80;;;21.30;99.90;;;;;;4682829;30;20069;-84
2022/06/18 07:20:48;;;;;;;12.68;8.85;;;21.40;99.90;;;;;;4683051;30;20418;-83
2022/06/18 07:23:14;;;;;;;8.98;7.40;;;21.50;99.90;;;;;;4667663;30;20053;-84
2022/06/18 07:25:40;;;;;;;9.30;7.43;;;21.50;99.90;;;;;;4682928;30;20053;-84
2022/06/18 07:28:06;;;;;;;10.07;7.45;;;21.60;99.90;;;;;;4681262;30;20052;-84
2022/06/18 07:30:33;;;;;;;9.50;7.05;;;21.60;99.90;;;;;;4696311;30;20046;-84
2022/06/18 07:32:59;;;;;;;8.98;7.13;;;21.80;99.90;;;;;;4682666;30;20056;-84
2022/06/18 07:35:28;;;;;;;9.02;6.80;;;21.90;99.90;;;;;;4682104;30;20042;-84
2022/06/18 07:37:59;;;;;;;9.48;6.88;;;22.00;99.90;;;;;;4681637;30;20074;-84
2022/06/18 07:40:29;;;;;;;9.90;7.05;;;22.20;99.90;;;;;;4667679;30;20042;-84
2022/06/18 07:42:55;;;;;;;9.73;6.90;;;22.50;99.90;;;;;;4668356;30;20042;-84
2022/06/18 07:45:25;;;;;;;8.20;6.95;;;22.80;99.90;;;;;;4668103;30;20048;-84
2022/06/18 07:47:52;;;;;;;7.68;6.30;;;23.20;99.90;;;;;;4679798;30;20220;-84
2022/06/18 07:50:21;;;;;;;9.65;6.75;;;23.50;99.90;;;;;;4680480;30;20042;-84
2022/06/18 07:52:47;;;;;;;6.68;6.00;;;24.00;99.90;;;;;;4668202;30;20110;-84
2022/06/18 07:55:20;;;;;;;7.80;5.53;;;24.50;99.90;;;;;;4683305;30;20054;-84
2022/06/18 07:57:49;;;;;;;6.60;5.80;;;25.00;99.90;;;;;;4682335;30;20125;-84
2022/06/18 08:00:17;;;;;;;8.93;5.55;;;25.40;99.90;;;;;;4681526;30;20042;-84
2022/06/18 08:02:43;;;;;;;8.10;5.70;;;25.90;99.90;;;;;;4678824;30;20041;-84
2022/06/18 08:05:12;;;;;;;8.13;5.35;;;26.30;99.90;;;;;;4681481;30;20490;-84
2022/06/18 08:07:38;;;;;;;7.32;4.50;;;26.60;99.90;;;;;;4682108;30;20057;-84
2022/06/18 08:10:05;;;;;;;5.10;4.60;;;26.90;99.90;;;;;;4694132;30;20418;-82
2022/06/18 08:12:32;;;;;;;6.35;5.03;;;27.30;99.90;;;;;;4682725;30;20125;-83
2022/06/18 08:14:59;;;;;;;7.57;4.50;;;27.60;99.90;;;;;;4681675;30;20050;-83
2022/06/18 08:17:25;;;;;;;5.60;3.75;;;27.80;99.90;;;;;;4682386;30;20052;-83
2022/06/18 08:19:51;;;;;;;6.65;4.40;;;27.90;99.20;;;;;;4682545;30;20089;-83
2022/06/18 08:22:17;;;;;;;5.60;3.83;;;28.10;98.80;;;;;;4682732;30;20139;-83
2022/06/18 08:24:43;;;;;;;5.13;3.22;;;28.30;95.90;;;;;;4682178;30;20060;-83
2022/06/18 08:27:09;;;;;;;5.85;3.72;;;28.40;93.50;;;;;;4681276;30;20054;-83
2022/06/18 08:29:35;;;;;;;5.55;3.75;;;28.60;94.00;;;;;;4680704;30;20505;-83
2022/06/18 08:32:02;;;;;;;7.32;3.95;;;28.70;92.30;;;;;;4668345;30;20136;-83
2022/06/18 08:34:27;;;;;;;4.25;3.40;;;28.80;91.00;;;;;;4667507;30;20514;-83
2022/06/18 08:36:53;;;;;;;6.45;3.67;;;28.80;91.20;;;;;;4680602;30;20182;-83
2022/06/18 08:39:19;;;;;;;6.15;3.67;;;28.90;90.40;;;;;;4681067;30;20395;-83
2022/06/18 08:42:11;;;;;;;6.60;3.38;;;29.00;89.60;;;;;;4681326;30;20076;-83
2022/06/18 08:45:04;;;;;;;5.30;3.60;;;29.20;86.10;;;;;;4674843;30;20409;-82
2022/06/18 08:47:57;;;;;;;5.97;2.95;;;29.30;80.50;;;;;;4666953;30;20103;-83
2022/06/18 08:50:26;;;;;;;;;;;29.40;84.80;;;;;;4681921;30;20056;-83
2022/06/18 08:53:13;;;;;;;8.20;3.15;;;29.60;84.80;;;;;;4680713;30;19981;-83
2022/06/18 08:56:00;;;;;;;5.35;2.90;;;29.70;85.50;;;;;;4674498;30;20054;-83
2022/06/18 08:58:25;;;;;;;7.03;2.65;;;30.00;77.50;;;;;;4681125;30;20450;-83
2022/06/18 09:01:00;;;;;;;3.40;2.47;;;30.10;80.40;;;;;;4667499;30;20046;-83
2022/06/18 09:03:36;;;;;;;4.35;2.58;;;30.20;80.70;;;;;;4681153;30;20050;-83
2022/06/18 09:06:21;;;;;;;3.72;2.28;;;30.30;77.60;;;;;;4678790;30;20049;-83
2022/06/18 09:08:58;;;;;;;4.32;2.60;;;30.40;75.20;;;;;;4681155;30;20083;-83
2022/06/18 09:11:55;;;;;;;4.82;2.50;;;30.50;78.10;;;;;;4680954;30;20050;-84
2022/06/18 09:14:28;;;;;;;4.55;2.67;;;30.60;75.20;;;;;;4676568;30;20058;-83
2022/06/18 09:17:07;;;;;;;3.17;2.33;;;30.70;76.20;;;;;;4678935;30;20523;-83
2022/06/18 09:19:36;;;;;;;4.40;2.58;;;30.80;73.60;;;;;;4674713;30;20422;-83
2022/06/18 09:22:05;;;;;;;3.92;2.40;;;30.90;74.30;;;;;;4679620;30;20046;-83
2022/06/18 09:24:43;;;;;;;3.50;2.38;;;31.00;73.90;;;;;;4673907;30;20046;-84
2022/06/18 09:27:42;;;;;;;7.60;2.50;;;31.00;72.30;;;;;;4680988;30;20139;-84
2022/06/18 09:30:13;;;;;;;5.00;2.60;;;31.00;69.10;;;;;;4666524;30;20053;-83
2022/06/18 09:32:46;;;;;;;4.18;2.28;;;31.20;73.30;;;;;;4682476;30;20058;-83
2022/06/18 09:35:34;;;;;;;3.78;2.35;;;31.30;73.70;;;;;;4682403;30;20050;-83
2022/06/18 09:38:39;;;;;;;3.38;2.13;;;31.40;74.20;;;;;;4680184;30;20054;-84
2022/06/18 09:41:14;;;;;;;3.67;2.10;;;31.60;71.30;;;;;;4677487;30;20104;-84
2022/06/18 09:44:12;;;;;;;3.67;2.20;;;31.80;72.50;;;;;;4669738;30;20045;-83
2022/06/18 09:46:43;;;;;;;4.45;1.98;;;31.90;70.90;;;;;;4667810;30;20068;-83
2022/06/18 09:49:09;;;;;;;2.58;1.77;;;31.90;71.50;;;;;;4678755;30;20077;-83
2022/06/18 09:52:03;;;;;;;2.55;1.50;;;32.00;70.70;;;;;;4680223;30;20073;-83
2022/06/18 09:54:45;;;;;;;2.17;1.60;;;32.10;70.00;;;;;;4681425;30;20046;-83
2022/06/18 09:57:15;;;;;;;3.42;1.80;;;32.10;69.50;;;;;;4679458;30;20522;-83
2022/06/18 10:00:07;;;;;;;2.92;1.58;;;32.20;68.50;;;;;;4679741;30;20053;-83
2022/06/18 10:02:36;;;;;;;2.40;1.60;;;32.30;66.40;;;;;;4673300;30;20081;-83
2022/06/18 10:07:51;;;;;;;3.40;1.50;;;32.40;67.70;;;;;;4680102;30;20517;-83
2022/06/18 10:10:21;;;;;;;3.35;1.30;;;32.50;67.10;;;;;;4679913;30;20457;-84
2022/06/18 10:12:54;;;;;;;2.78;1.30;;;32.50;66.90;;;;;;4678511;30;20410;-83
2022/06/18 10:15:22;;;;;;;2.38;1.50;;;32.60;66.70;;;;;;4680353;30;20050;-83
2022/06/18 10:18:04;;;;;;;1.67;1.55;;;32.70;66.60;;;;;;4679500;30;20042;-84
2022/06/18 10:20:47;;;;;;;2.65;2.13;;;32.80;64.70;;;;;;4676026;30;20081;-82
2022/06/18 10:23:58;;;;;;;2.70;1.67;;;32.70;64.80;;;;;;4680631;30;20050;-82
2022/06/18 10:26:39;;;;;;;3.03;2.00;;;32.70;63.30;;;;;;4681069;30;20506;-82
2022/06/18 10:29:05;;;;;;;3.30;2.00;;;32.40;63.30;;;;;;4682844;30;20146;-81
2022/06/18 10:31:55;;;;;;;2.13;1.80;;;32.30;64.20;;;;;;4683374;30;20188;-81
2022/06/18 10:34:28;;;;;;;3.15;1.45;;;32.30;63.60;;;;;;4683737;30;20486;-81
2022/06/18 10:37:19;;;;;;;3.58;1.65;;;32.30;63.70;;;;;;4685047;30;20423;-81
2022/06/18 10:40:20;;;;;;;2.55;1.55;;;32.40;64.70;;;;;;4682126;30;20052;-82
2022/06/18 10:43:01;;;;;;;3.13;1.38;;;32.40;63.80;;;;;;4676226;30;20518;-83
2022/06/18 10:45:41;;;;;;;2.33;1.60;;;32.40;65.00;;;;;;4681768;30;20050;-81
2022/06/18 10:48:28;;;;;;;5.68;1.90;;;32.50;66.30;;;;;;4681202;30;20042;-82
2022/06/18 10:50:56;;;;;;;3.47;1.58;;;32.60;62.60;;;;;;4681654;30;20042;-82
2022/06/18 10:53:25;;;;;;;2.35;1.25;;;32.50;63.70;;;;;;4681100;30;20042;-82
2022/06/18 10:56:05;;;;;;;3.35;1.63;;;32.60;64.80;;;;;;4668122;30;20090;-82
2022/06/18 10:58:31;;;;;;;2.42;1.40;;;32.70;64.40;;;;;;4679559;30;20089;-82
2022/06/18 11:01:00;;;;;;;3.38;1.60;;;32.90;64.50;;;;;;4668622;30;20060;-82
2022/06/18 11:03:32;;;;;;;2.95;1.55;;;33.00;63.30;;;;;;4681984;30;20038;-83
2022/06/18 11:06:03;;;;;;;3.92;1.60;;;32.90;62.40;;;;;;4681921;30;20115;-82
2022/06/18 11:08:31;;;;;;;3.53;1.60;;;32.90;62.80;;;;;;4667700;30;20465;-82
2022/06/18 11:11:03;;;;;;;3.65;1.65;;;32.90;63.10;;;;;;4681805;30;20494;-82
2022/06/18 11:13:40;;;;;;;2.97;1.30;;;32.90;62.30;;;;;;4682802;30;20092;-83
2022/06/18 11:16:27;;;;;;;2.88;1.58;;;32.90;60.90;;;;;;4679909;30;20046;-82
2022/06/18 11:18:56;;;;;;;4.90;1.70;;;32.90;60.00;;;;;;4679585;30;20521;-83
2022/06/18 11:21:24;;;;;;;2.50;1.50;;;32.80;60.30;;;;;;4679022;30;20058;-79
2022/06/18 11:24:10;;;;;;;3.80;1.55;;;32.80;62.20;;;;;;4678755;30;20535;-82
2022/06/18 11:26:50;;;;;;;5.88;1.60;;;32.90;62.40;;;;;;4677204;30;20502;-82
2022/06/18 11:29:32;;;;;;;2.67;1.60;;;33.00;63.90;;;;;;4678562;30;20057;-81
2022/06/18 11:32:01;;;;;;;3.67;1.73;;;33.10;64.00;;;;;;4681119;30;20041;-82
2022/06/18 11:34:33;;;;;;;2.92;1.35;;;33.30;62.60;;;;;;4680826;30;20128;-82
2022/06/18 11:36:59;;;;;;;1.85;1.20;;;33.40;61.40;;;;;;4668330;30;20506;-82
2022/06/18 11:39:39;;;;;;;4.07;1.45;;;33.40;60.30;;;;;;4678974;30;20189;-82
2022/06/18 11:42:18;;;;;;;3.22;1.83;;;33.40;60.60;;;;;;4680953;30;20050;-82
2022/06/18 11:44:53;;;;;;;3.30;1.58;;;33.40;61.30;;;;;;4683978;30;20127;-81
2022/06/18 11:47:24;;;;;;;4.05;1.55;;;33.20;62.00;;;;;;4661532;30;20421;-81
2022/06/18 11:49:57;;;;;;;5.38;1.95;;;33.00;63.30;;;;;;4668943;30;20513;-81
2022/06/18 11:52:46;;;;;;;3.67;1.80;;;32.90;63.60;;;;;;4666018;30;20053;-81
2022/06/18 11:55:27;;;;;;;2.33;1.60;;;32.90;62.70;;;;;;4682610;30;20125;-82
2022/06/18 11:58:19;;;;;;;3.83;1.67;;;32.90;63.30;;;;;;4693695;30;20042;-82
2022/06/18 12:01:11;;;;;;;3.28;2.15;;;32.90;62.40;;;;;;4682038;30;20034;-81
2022/06/18 12:04:01;;;;;;;3.17;2.00;;;32.80;63.00;;;;;;4671511;30;20069;-81
2022/06/18 12:06:51;;;;;;;3.92;1.73;;;32.90;64.40;;;;;;4681936;30;20058;-82
2022/06/18 12:09:17;;;;;;;2.35;1.50;;;32.90;65.00;;;;;;4666910;30;20409;-81
2022/06/18 12:11:49;;;;;;;2.80;1.70;;;33.00;63.70;;;;;;4666115;30;20042;-81
2022/06/18 12:14:23;;;;;;;2.58;1.88;;;33.10;64.50;;;;;;4667274;30;20068;-82
2022/06/18 12:17:10;;;;;;;1.65;1.45;;;33.10;63.50;;;;;;4680394;30;20551;-81
2022/06/18 12:19:42;;;;;;;3.33;1.77;;;32.80;62.50;;;;;;4662522;30;20049;-81
2022/06/18 12:22:20;;;;;;;3.65;1.42;;;32.60;63.70;;;;;;4665942;30;20388;-81
2022/06/18 12:24:45;;;;;;;3.58;1.70;;;32.70;62.80;;;;;;4678188;30;20491;-81
2022/06/18 12:27:21;;;;;;;1.75;1.45;;;32.70;60.90;;;;;;4680419;30;20108;-82
2022/06/18 12:30:02;;;;;;;2.42;1.30;;;32.40;61.80;;;;;;4665737;30;20046;-81
2022/06/18 12:32:45;;;;;;;1.50;1.30;;;32.30;64.20;;;;;;4678602;30;20443;-81
2022/06/18 12:45:56;;;;;;;3.20;1.60;;;32.70;62.40;;;;;;5516495;24;19927;-85
2022/06/18 12:49:01;;;;;;;2.03;1.40;;;32.80;63.10;;;;;;4669786;30;20050;-85
2022/06/18 12:51:56;;;;;;;2.95;1.50;;;32.70;62.00;;;;;;4661024;30;20061;-85
2022/06/18 12:54:38;;;;;;;3.33;1.40;;;32.30;62.60;;;;;;4663692;30;20141;-85
2022/06/18 12:57:24;;;;;;;3.83;1.60;;;32.20;63.20;;;;;;4677861;30;20540;-85
2022/06/18 12:59:58;;;;;;;2.40;1.50;;;32.20;63.40;;;;;;4656715;30;20550;-85
2022/06/18 13:03:12;;;;;;;3.10;1.27;;;31.80;63.30;;;;;;4684861;30;20042;-85
2022/06/18 13:05:41;;;;;;;;;;;31.70;65.50;;;;;;4653854;30;20042;-85
2022/06/18 13:08:16;;;;;;;2.38;1.55;;;31.80;66.80;;;;;;4672245;30;19930;-85
2022/06/18 13:10:44;;;;;;;2.72;1.40;;;31.60;64.20;;;;;;4675776;30;20137;-85
2022/06/18 13:13:36;;;;;;;2.88;1.60;;;31.40;65.20;;;;;;4673656;30;20042;-85
2022/06/18 13:16:06;;;;;;;3.45;1.50;;;31.00;67.10;;;;;;4669980;30;20486;-84
2022/06/18 13:18:37;;;;;;;3.63;1.50;;;30.70;67.00;;;;;;4668402;30;20053;-84
2022/06/18 13:21:05;;;;;;;2.72;1.00;;;30.60;67.30;;;;;;4670926;30;20074;-84
2022/06/18 13:29:15;;;;;;;1.98;1.15;;;30.90;68.10;;;;;;4660747;30;20578;-82
2022/06/18 13:32:03;;;;;;;2.60;1.38;;;31.10;67.70;;;;;;4659793;30;20088;-85
2022/06/18 13:34:35;;;;;;;3.53;1.17;;;31.00;65.20;;;;;;4691449;30;20070;-85
2022/06/18 13:37:15;;;;;;;3.78;1.15;;;30.80;66.70;;;;;;4664145;30;20141;-84
2022/06/18 13:40:18;;;;;;;1.80;1.00;;;30.70;68.10;;;;;;4643224;30;20133;-84
2022/06/18 13:43:12;;;;;;;2.35;1.20;;;30.90;69.20;;;;;;4679687;30;20140;-83
2022/06/18 13:46:04;;;;;;;2.92;1.20;;;31.00;65.80;;;;;;4677974;30;20046;-84
2022/06/18 13:49:02;;;;;;;3.65;1.10;;;31.00;68.90;;;;;;4659309;30;20133;-84
2022/06/18 13:51:31;;;;;;;3.42;1.08;;;31.10;68.10;;;;;;4673074;30;20042;-84
2022/06/18 13:54:06;;;;;;;1.85;0.80;;;31.00;68.00;;;;;;4650022;30;20145;-84
2022/06/18 13:56:33;;;;;;;1.77;1.00;;;31.00;67.50;;;;;;4661621;30;20418;-84
2022/06/18 13:59:00;;;;;;;3.20;1.00;;;31.00;67.80;;;;;;4675694;30;20050;-83
2022/06/18 14:01:27;;;;;;;4.25;1.00;;;30.90;68.50;;;;;;4676199;30;20050;-84
2022/06/18 14:04:06;;;;;;;2.47;1.23;;;30.80;68.30;;;;;;4647856;30;20046;-84
2022/06/18 14:06:32;;;;;;;2.80;0.98;;;30.70;66.20;;;;;;4647029;30;20046;-84
2022/06/18 14:09:05;;;;;;;4.38;1.10;;;30.50;66.20;;;;;;4648578;30;20491;-84
2022/06/18 14:11:35;;;;;;;2.95;1.00;;;30.30;67.40;;;;;;4663254;30;20054;-84
2022/06/18 14:14:04;;;;;;;1.85;1.00;;;30.30;67.70;;;;;;4666450;30;20418;-83
2022/06/18 14:16:40;;;;;;;2.20;1.10;;;30.20;65.90;;;;;;4660164;30;20058;-84
2022/06/18 14:19:08;;;;;;;0.85;0.80;;;30.00;66.20;;;;;;4666065;30;20052;-84
2022/06/18 14:21:34;;;;;;;1.58;0.88;;;29.80;66.00;;;;;;4655078;30;20055;-84
2022/06/18 14:24:01;;;;;;;3.33;1.10;;;29.70;67.00;;;;;;4677200;30;20050;-83
2022/06/18 14:26:42;;;;;;;0.90;0.80;;;29.70;69.60;;;;;;4663136;30;20157;-83
2022/06/18 14:29:09;;;;;;;2.05;1.00;;;29.80;70.50;;;;;;4661917;30;20050;-83
2022/06/18 14:31:44;;;;;;;1.30;0.77;;;29.90;68.60;;;;;;4665910;30;20070;-84
2022/06/18 14:34:34;;;;;;;1.67;0.70;;;30.10;68.30;;;;;;4665084;30;20146;-83
2022/06/18 14:37:10;;;;;;;1.77;0.80;;;30.10;67.60;;;;;;4644952;30;20051;-83
2022/06/18 14:39:56;;;;;;;1.38;0.80;;;30.20;67.80;;;;;;4661530;30;20054;-84
2022/06/18 14:42:28;;;;;;;2.72;1.00;;;30.20;67.20;;;;;;4669383;30;20054;-84
2022/06/18 14:45:06;;;;;;;1.70;0.95;;;30.10;65.50;;;;;;4655896;30;20507;-83
2022/06/18 14:47:57;;;;;;;6.03;0.98;;;29.80;66.00;;;;;;4678164;30;20054;-83
2022/06/18 14:50:37;;;;;;;2.10;1.20;;;29.60;67.30;;;;;;4662072;30;20574;-84
2022/06/18 14:53:37;;;;;;;1.77;0.98;;;29.50;69.00;;;;;;4669928;30;20046;-84
2022/06/18 14:56:36;;;;;;;2.47;0.82;;;29.50;68.10;;;;;;4659749;30;20058;-84
2022/06/18 14:59:34;;;;;;;2.30;0.80;;;29.40;68.40;;;;;;4651488;30;20054;-84
2022/06/18 15:02:06;;;;;;;3.50;1.08;;;29.20;69.30;;;;;;4666370;30;20050;-84
2022/06/18 15:04:39;;;;;;;1.75;1.00;;;28.90;69.50;;;;;;4667124;30;20057;-83
2022/06/18 15:07:07;;;;;;;3.03;1.02;;;28.70;69.70;;;;;;4656578;30;20050;-83
2022/06/18 15:09:37;;;;;;;1.83;0.90;;;28.40;69.80;;;;;;4663615;30;20178;-83
2022/06/18 15:12:08;;;;;;;3.65;0.90;;;28.20;69.80;;;;;;4670789;30;20038;-84
2022/06/18 15:14:46;;;;;;;4.22;0.80;;;28.00;69.80;;;;;;4665650;30;20046;-82
2022/06/18 15:23:21;;;;;;;2.85;1.08;;;27.20;70.10;;;;;;4682759;30;20054;-82
2022/06/18 15:25:40;;;;;;;1.83;0.63;;;26.80;70.40;;;;;;4666734;30;20422;-83
2022/06/18 15:28:08;;;;;;;2.58;1.08;;;26.50;71.40;;;;;;4665489;30;20101;-82
2022/06/18 15:30:57;;;;;;;2.55;0.85;;;26.20;72.40;;;;;;4669699;30;20506;-81
2022/06/18 15:33:25;;;;;;;3.17;1.10;;;26.00;73.00;;;;;;4641085;30;20082;-82
2022/06/18 15:35:54;;;;;;;4.00;1.00;;;25.80;73.30;;;;;;4661373;30;20050;-83
2022/06/18 15:38:34;;;;;;;3.58;1.20;;;25.60;72.80;;;;;;4651141;30;20402;-80
2022/06/18 15:41:07;;;;;;;9.40;8.23;;;25.30;73.00;;;;;;4654854;30;20039;-81
2022/06/18 15:43:42;;;;;;;;;;;25.20;73.90;;;;;;4663601;30;20057;-81
2022/06/18 15:46:16;;;;;;;4.18;0.95;;;25.00;77.60;;;;;;4691743;30;19975;-82
2022/06/18 15:48:51;;;;;;;4.15;1.25;;;24.90;75.80;;;;;;4671684;30;20042;-82
2022/06/18 15:51:23;;;;;;;2.47;0.90;;;24.90;76.00;;;;;;4666479;30;20046;-82
2022/06/18 15:53:55;;;;;;;4.50;2.42;;;24.70;76.10;;;;;;4675787;30;20522;-81
2022/06/18 15:56:26;;;;;;;4.07;1.63;;;24.60;76.80;;;;;;4669734;30;20042;-82
2022/06/18 15:58:52;;;;;;;8.50;2.55;;;24.50;77.00;;;;;;4669407;30;20415;-80
2022/06/18 16:01:20;;;;;;;4.60;1.48;;;24.40;78.20;;;;;;4663766;30;20050;-83
2022/06/18 16:03:47;;;;;;;3.05;1.40;;;24.30;79.20;;;;;;4664100;30;20050;-82
2022/06/18 16:06:18;;;;;;;3.88;1.08;;;24.20;79.50;;;;;;4695318;30;20053;-82
2022/06/18 16:09:12;;;;;;;3.65;1.00;;;24.10;80.20;;;;;;4667838;30;20093;-82
2022/06/18 16:11:42;;;;;;;4.53;1.25;;;24.00;80.20;;;;;;4667413;30;20490;-82
2022/06/18 16:14:11;;;;;;;4.40;1.50;;;23.90;79.90;;;;;;4654343;30;20050;-81
2022/06/18 16:17:01;;;;;;;6.50;1.30;;;23.80;80.00;;;;;;4666105;30;20051;-82
2022/06/18 16:19:38;;;;;;;5.88;1.50;;;23.70;80.50;;;;;;4666117;30;20129;-81
2022/06/18 16:22:04;;;;;;;4.38;1.20;;;23.60;80.50;;;;;;4690923;30;20042;-81
2022/06/18 16:24:38;;;;;;;3.45;1.20;;;23.50;81.00;;;;;;4664554;30;20133;-81
2022/06/18 16:27:17;;;;;;;4.20;1.10;;;23.40;81.70;;;;;;4675923;30;20034;-83
2022/06/18 16:30:00;;;;;;;4.25;1.15;;;23.30;81.80;;;;;;4674356;30;20603;-87
2022/06/18 16:32:46;;;;;;;5.03;1.10;;;23.20;81.80;;;;;;4670972;30;20050;-87
2022/06/18 16:35:12;;;;;;;3.80;1.27;;;23.10;82.90;;;;;;4678102;30;20456;-87
2022/06/18 16:37:42;;;;;;;6.05;1.75;;;23.00;84.10;;;;;;4667062;30;20074;-87
2022/06/18 16:40:18;;;;;;;2.75;0.90;;;23.00;85.00;;;;;;4660655;30;20144;-85
2022/06/18 16:42:52;;;;;;;5.88;2.78;;;22.90;84.90;;;;;;4664524;30;20050;-85
2022/06/18 16:45:17;;;;;;;;;;;22.80;85.00;;;;;;4663743;30;20046;-86
2022/06/18 16:47:48;;;;;;;8.10;4.03;;;22.80;85.50;;;;;;4672789;30;19931;-86
2022/06/18 16:50:17;;;;;;;4.60;2.30;;;22.70;86.20;;;;;;4674442;30;20050;-85
2022/06/18 16:52:43;;;;;;;4.82;1.50;;;22.60;86.00;;;;;;4668877;30;20098;-85
2022/06/18 16:55:16;;;;;;;3.80;1.20;;;22.50;85.90;;;;;;4650186;30;20569;-86
2022/06/18 16:57:42;;;;;;;5.40;1.60;;;22.50;86.00;;;;;;4663252;30;20046;-85
2022/06/18 17:00:16;;;;;;;2.83;1.10;;;22.50;86.00;;;;;;4663668;30;20046;-85
2022/06/18 17:02:42;;;;;;;4.22;1.10;;;22.60;86.20;;;;;;4662933;30;20549;-88
2022/06/18 17:05:08;;;;;;;1.85;0.98;;;22.60;86.00;;;;;;4649278;30;20047;-87
2022/06/18 17:07:34;;;;;;;2.58;1.00;;;22.50;85.30;;;;;;4669831;30;20048;-87
2022/06/18 17:10:18;;;;;;;3.75;1.13;;;22.40;85.50;;;;;;4663751;30;20045;-86
2022/06/18 17:12:43;;;;;;;3.47;0.90;;;22.30;85.60;;;;;;4664073;30;20133;-85
2022/06/18 17:15:10;;;;;;;7.10;0.95;;;22.20;86.50;;;;;;4664065;30;20203;-86
2022/06/18 17:17:36;;;;;;;4.40;1.15;;;22.10;87.00;;;;;;4673520;30;20085;-85
2022/06/18 17:20:01;;;;;;;4.10;1.00;;;22.00;86.60;;;;;;4674510;30;20074;-86
2022/06/18 17:22:27;;;;;;;3.50;0.90;;;21.90;88.50;;;;;;4673771;30;20049;-87
2022/06/18 17:33:08;;;;;;;3.05;0.88;;;21.60;89.20;;;;;;4680000;30;20477;-86
2022/06/18 17:35:47;;;;;;;2.28;0.70;;;21.50;90.00;;;;;;4674801;30;20042;-85
2022/06/18 17:38:15;;;;;;;2.88;0.90;;;21.50;90.40;;;;;;4673363;30;20053;-85
2022/06/18 17:40:41;;;;;;;2.28;0.90;;;21.40;90.20;;;;;;4680622;30;20115;-85
2022/06/18 17:43:10;;;;;;;3.78;0.82;;;21.40;90.30;;;;;;4680544;30;20062;-86
2022/06/18 17:45:36;;;;;;;3.75;0.80;;;21.30;90.20;;;;;;4673945;30;20132;-84
2022/06/18 17:48:02;;;;;;;2.30;0.80;;;21.20;90.40;;;;;;4673209;30;20469;-87
2022/06/18 17:50:27;;;;;;;2.72;1.17;;;21.20;90.70;;;;;;4680858;30;20081;-85
2022/06/18 17:52:53;;;;;;;5.00;1.05;;;21.10;90.90;;;;;;4680666;30;20478;-85
2022/06/18 17:55:20;;;;;;;3.78;1.02;;;21.00;91.20;;;;;;4678089;30;20042;-86
2022/06/18 17:57:46;;;;;;;5.18;1.60;;;21.00;91.00;;;;;;4673257;30;20089;-86
2022/06/18 18:00:13;;;;;;;4.28;1.27;;;21.00;91.40;;;;;;4680903;30;20077;-86
2022/06/18 18:02:39;;;;;;;6.22;1.15;;;20.90;91.70;;;;;;4680349;30;20038;-86
2022/06/18 18:05:06;;;;;;;5.53;1.13;;;20.80;91.60;;;;;;4680496;30;20513;-86
2022/06/18 18:07:41;;;;;;;7.60;1.50;;;20.70;91.60;;;;;;4676932;30;20054;-86
2022/06/18 18:10:08;;;;;;;6.55;1.67;;;20.60;91.50;;;;;;4655925;30;20370;-86
2022/06/18 18:12:34;;;;;;;6.65;1.20;;;20.50;91.50;;;;;;4673223;30;20495;-86
2022/06/18 18:15:04;;;;;;;5.45;1.30;;;20.40;91.60;;;;;;4680608;30;20102;-86
2022/06/18 18:17:30;;;;;;;6.18;1.20;;;20.30;91.50;;;;;;4675165;30;20398;-87
2022/06/18 18:19:56;;;;;;;3.72;1.38;;;20.20;91.60;;;;;;4673033;30;20124;-85
2022/06/18 18:22:22;;;;;;;3.80;1.50;;;20.10;91.60;;;;;;4675150;30;20054;-85
2022/06/18 18:24:47;;;;;;;5.65;1.33;;;20.00;92.00;;;;;;4673195;30;20046;-85
2022/06/18 18:27:17;;;;;;;6.40;1.67;;;19.80;92.30;;;;;;4680344;30;20491;-87
2022/06/18 18:29:45;;;;;;;5.90;1.20;;;19.70;92.70;;;;;;4672215;30;20034;-86
2022/06/18 18:32:11;;;;;;;5.93;1.58;;;19.60;92.70;;;;;;4673368;30;20129;-85
2022/06/18 18:34:36;;;;;;;4.85;1.40;;;19.50;93.10;;;;;;4680472;30;20136;-86
2022/06/18 18:37:03;;;;;;;8.00;1.45;;;19.40;93.40;;;;;;4680199;30;20053;-85
2022/06/18 18:39:29;;;;;;;6.63;1.60;;;19.30;93.60;;;;;;4672398;30;20053;-86
2022/06/18 18:42:48;;;;;;;4.47;1.20;;;19.20;93.70;;;;;;4673107;30;20045;-86
2022/06/18 18:45:19;;;;;;;5.65;1.30;;;19.10;93.90;;;;;;4671360;30;20066;-85
2022/06/18 18:48:26;;;;;;;;;;;;;;;;;;;;;
2022/06/18 18:51:46;;;;;;;6.80;1.40;;;19.10;94.00;;;;;;4649381;30;20066;-79
2022/06/18 18:54:47;;;;;;;6.32;1.20;;;18.90;94.50;;;;;;4631424;30;20063;-82
2022/06/18 19:08:44;;;;;;;5.47;1.60;;;18.30;93.10;;;;;;4596410;31;20057;-84
2022/06/18 19:23:47;;;;;;;;;;;;;;;;;;;;;
2022/06/18 19:31:28;;;;;;;;;;;;;;;;;;;;;
2022/06/18 19:42:41;;;;;;;;;;;;;;;;;;;;;
2022/06/18 20:08:17;;;;;;;5.43;1.20;;;16.40;99.90;;;;;;4516299;31;20054;-80
2022/06/18 20:10:53;;;;;;;6.60;1.30;;;16.30;99.90;;;;;;4606121;25;20514;-85
2022/06/18 20:13:19;;;;;;;6.97;1.60;;;16.30;99.90;;;;;;4670158;30;20055;-86
2022/06/18 20:15:46;;;;;;;5.13;1.30;;;16.10;99.90;;;;;;4667680;30;20046;-86
2022/06/18 20:18:12;;;;;;;6.28;1.63;;;16.00;99.90;;;;;;4681902;30;20057;-87
2022/06/18 20:20:39;;;;;;;9.05;1.70;;;16.10;99.90;;;;;;4681995;30;20145;-87
2022/06/18 20:23:06;;;;;;;5.32;1.55;;;16.00;99.90;;;;;;4681242;30;20054;-86
2022/06/18 20:25:31;;;;;;;8.15;2.00;;;15.90;99.90;;;;;;4681766;30;20050;-86
2022/06/18 20:27:57;;;;;;;6.00;1.60;;;15.80;99.90;;;;;;4681889;30;20045;-85
2022/06/18 20:30:24;;;;;;;6.30;1.50;;;15.70;99.90;;;;;;4681844;30;20200;-86
2022/06/18 20:32:50;;;;;;;9.90;2.17;;;15.70;99.90;;;;;;4681209;30;20555;-86
2022/06/18 20:35:22;;;;;;;9.05;1.75;;;15.60;99.90;;;;;;4674300;30;20046;-86
2022/06/18 20:37:48;;;;;;;8.88;2.10;;;15.70;99.90;;;;;;4681504;30;20038;-86
2022/06/18 20:40:14;;;;;;;8.73;2.00;;;15.50;99.90;;;;;;4681930;30;20490;-85
2022/06/18 20:42:41;;;;;;;9.90;2.35;;;15.50;99.90;;;;;;4682026;30;20125;-86
2022/06/18 20:45:08;;;;;;;12.38;2.22;;;15.50;99.90;;;;;;4695760;30;20041;-86
2022/06/18 20:47:33;;;;;;;7.78;2.40;;;15.50;99.90;;;;;;4681690;30;20105;-86
2022/06/18 20:50:00;;;;;;;6.70;1.80;;;15.40;99.90;;;;;;4681676;30;20073;-86
2022/06/18 20:52:25;;;;;;;9.85;1.77;;;15.40;99.90;;;;;;4680387;30;20038;-86
2022/06/18 20:57:36;;;;;;;8.05;1.98;;;15.40;99.90;;;;;;4664192;30;20578;-87
2022/06/18 21:00:03;;;;;;;10.20;2.65;;;15.30;99.90;;;;;;4692813;30;20081;-86
2022/06/18 21:02:39;;;;;;;5.55;1.73;;;15.30;99.90;;;;;;4675978;30;20137;-86
2022/06/18 21:05:08;;;;;;;9.30;1.83;;;15.30;99.90;;;;;;4667173;30;20047;-85
2022/06/18 21:07:35;;;;;;;10.77;2.47;;;15.20;99.90;;;;;;4703169;30;20145;-86
2022/06/18 21:10:00;;;;;;;7.75;2.20;;;15.20;99.90;;;;;;4666577;30;20082;-86
2022/06/18 21:12:28;;;;;;;9.23;1.73;;;15.20;99.90;;;;;;4681459;30;20085;-86
2022/06/18 21:14:55;;;;;;;9.55;1.95;;;15.10;99.90;;;;;;4680940;30;20050;-86
2022/06/18 21:17:21;;;;;;;11.60;2.25;;;15.00;99.90;;;;;;4679956;30;20053;-86
2022/06/18 21:19:47;;;;;;;10.07;2.13;;;15.00;99.90;;;;;;4695132;30;20056;-86
2022/06/18 21:22:14;;;;;;;7.40;1.95;;;15.00;99.90;;;;;;4680815;30;20046;-86
2022/06/18 21:24:40;;;;;;;7.80;1.90;;;14.90;99.90;;;;;;4680847;30;20061;-86
2022/06/18 21:27:06;;;;;;;10.45;2.20;;;14.90;99.90;;;;;;4681102;30;20053;-86